Ty Lotus — DSNU7 — position and weather

sailwx.info

Track history (hours):
 
Tides and Currents Weather Stations Pressure Air Temp Water Temp Dewpoint Dewpoint Depression Visibility Wind Speed Wind Dir Waves Ship Positions

Ty Lotus

Last reported at 2017-Mar-13 07:26 UTC. Time now 2017-Mar-31 00:39 UTC.
Position N 33°50' E 132°19'.
Warning: this ship's position is 17 days out of date.

Length 80 m; draft 6.3 m.

Type: Cargo ship. MMSI: 440324000.

Date/timePositionNaut miles runAvg speedWind from/ knotsBaromVisibWave heightAir tempDewpointWater temp
2017-Mar-13 07:26N 33°50' E 132°19'910.1
2017-Mar-13 06:33N 33°52' E 132°30'1111.2
2017-Mar-13 05:33N 33°57' E 132°42'340 8.3
2017-Mar-11 12:32N 35°01' E 139°27'1010.0
2017-Mar-11 11:33N 35°06' E 139°37'1010.2
2017-Mar-11 10:33N 35°13' E 139°46'1010.0
2017-Mar-11 09:33N 35°22' E 139°42'9 9.5
2017-Mar-11 08:33N 35°29' E 139°50'13 0.4
2017-Mar-09 22:27N 35°40' E 139°59'4 4.0
2017-Mar-09 21:30N 35°37' E 139°58'4 0.3
2017-Mar-09 07:30N 35°41' E 139°58'0 0.0
2017-Mar-09 05:10N 35°41' E 139°58'0 0.0
2017-Mar-09 04:31N 35°41' E 139°58'0 0.0
2017-Mar-09 03:22N 35°41' E 139°58'1 0.2
2017-Mar-08 21:33N 35°40' E 139°59'5 3.6
2017-Mar-08 20:14N 35°35' E 139°57'1 1.2
2017-Mar-08 19:33N 35°35' E 139°56'8 8.1
2017-Mar-08 18:33N 35°28' E 139°51'9 8.6
2017-Mar-08 17:33N 35°21' E 139°45'8 8.3
2017-Mar-08 16:33N 35°13' E 139°47'8 8.2
2017-Mar-08 15:33N 35°06' E 139°41'9 8.8
2017-Mar-08 14:31N 35°01' E 139°32'231 7.4
2017-Mar-07 07:22N 34°09' E 134°58'17 9.1
2017-Mar-07 05:30N 34°26' E 135°01'8 8.7
2017-Mar-07 04:33N 34°34' E 135°03'124 8.9
2017-Mar-06 14:34N 33°56' E 132°40'9 8.9
2017-Mar-06 13:33N 33°52' E 132°30'  
Track history (hours):
 
Tides and Currents Weather Stations Pressure Air Temp Water Temp Dewpoint Dewpoint Depression Visibility Wind Speed Wind Dir Waves Ship Positions

Ty Lotus

Last reported at 2017-Mar-13 07:26 UTC. Time now 2017-Mar-31 00:39 UTC.
Position N 33°50' E 132°19'.
Warning: this ship's position is 17 days out of date.

Length 80 m; draft 6.3 m.

Type: Cargo ship. MMSI: 440324000.

Date/timePositionNaut miles runAvg speedWind from/ knotsBaromVisibWave heightAir tempDewpointWater temp
2017-Mar-13 07:26N 33°50' E 132°19'910.1
2017-Mar-13 06:33N 33°52' E 132°30'1111.2
2017-Mar-13 05:33N 33°57' E 132°42'340 8.3
2017-Mar-11 12:32N 35°01' E 139°27'1010.0
2017-Mar-11 11:33N 35°06' E 139°37'1010.2
2017-Mar-11 10:33N 35°13' E 139°46'1010.0
2017-Mar-11 09:33N 35°22' E 139°42'9 9.5
2017-Mar-11 08:33N 35°29' E 139°50'13 0.4
2017-Mar-09 22:27N 35°40' E 139°59'4 4.0
2017-Mar-09 21:30N 35°37' E 139°58'4 0.3
2017-Mar-09 07:30N 35°41' E 139°58'0 0.0
2017-Mar-09 05:10N 35°41' E 139°58'0 0.0
2017-Mar-09 04:31N 35°41' E 139°58'0 0.0
2017-Mar-09 03:22N 35°41' E 139°58'1 0.2
2017-Mar-08 21:33N 35°40' E 139°59'5 3.6
2017-Mar-08 20:14N 35°35' E 139°57'1 1.2
2017-Mar-08 19:33N 35°35' E 139°56'8 8.1
2017-Mar-08 18:33N 35°28' E 139°51'9 8.6
2017-Mar-08 17:33N 35°21' E 139°45'8 8.3
2017-Mar-08 16:33N 35°13' E 139°47'8 8.2
2017-Mar-08 15:33N 35°06' E 139°41'9 8.8
2017-Mar-08 14:31N 35°01' E 139°32'231 7.4
2017-Mar-07 07:22N 34°09' E 134°58'17 9.1
2017-Mar-07 05:30N 34°26' E 135°01'8 8.7
2017-Mar-07 04:33N 34°34' E 135°03'124 8.9
2017-Mar-06 14:34N 33°56' E 132°40'9 8.9
2017-Mar-06 13:33N 33°52' E 132°30'  

Dump ship's entire track history